createdAt,value
2018-11-01T00:01:15.369Z,2.20
2018-11-01T00:03:45.165Z,2.00
2018-11-01T00:06:13.290Z,2.10
2018-11-01T00:08:41.858Z,2.30
2018-11-01T00:11:11.042Z,1.87
2018-11-01T00:13:41.031Z,2.00
2018-11-01T00:16:09.217Z,2.17
2018-11-01T00:18:37.941Z,3.47
2018-11-01T00:21:06.921Z,1.90
2018-11-01T00:23:37.001Z,1.83
2018-11-01T00:26:06.891Z,1.80
2018-11-01T00:28:36.633Z,2.40
2018-11-01T00:31:05.269Z,1.83
2018-11-01T00:33:33.884Z,1.80
2018-11-01T00:36:02.558Z,1.98
2018-11-01T00:38:31.154Z,1.80
2018-11-01T00:41:00.570Z,1.83
2018-11-01T00:43:29.854Z,1.85
2018-11-01T00:45:58.642Z,1.70
2018-11-01T00:48:27.753Z,2.00
2018-11-01T00:50:56.381Z,2.13
2018-11-01T00:53:25.022Z,1.90
2018-11-01T00:55:53.095Z,1.60
2018-11-01T00:58:21.225Z,1.80
2018-11-01T01:00:49.954Z,1.80
2018-11-01T01:03:18.530Z,1.80
2018-11-01T01:05:46.706Z,2.07
2018-11-01T01:08:15.523Z,1.80
2018-11-01T01:10:43.657Z,2.00
2018-11-01T01:13:12.053Z,1.93
2018-11-01T01:15:40.227Z,2.00
2018-11-01T01:18:08.709Z,1.70
2018-11-01T01:20:38.526Z,2.00
2018-11-01T01:23:06.880Z,1.98
2018-11-01T01:25:36.027Z,2.13
2018-11-01T01:28:04.451Z,1.77
2018-11-01T01:30:33.445Z,1.83
2018-11-01T01:33:02.283Z,2.00
2018-11-01T01:35:30.542Z,2.00
2018-11-01T01:37:58.735Z,2.27
2018-11-01T01:40:27.544Z,1.80
2018-11-01T01:42:55.717Z,1.90
2018-11-01T01:45:25.409Z,1.62
2018-11-01T01:47:53.555Z,1.60
2018-11-01T01:50:22.369Z,1.80
2018-11-01T01:52:50.945Z,1.80
2018-11-01T01:55:20.062Z,1.90
2018-11-01T01:57:48.167Z,1.67
2018-11-01T02:00:18.646Z,1.57
2018-11-01T02:02:48.427Z,2.00
2018-11-01T02:05:16.641Z,1.70
2018-11-01T02:07:46.425Z,1.90
2018-11-01T02:10:15.522Z,1.60
2018-11-01T02:12:44.163Z,2.00
2018-11-01T02:15:16.428Z,1.70
2018-11-01T02:17:45.173Z,2.00
2018-11-01T02:20:15.369Z,1.80
2018-11-01T02:22:44.245Z,2.17
2018-11-01T02:25:12.822Z,1.70
2018-11-01T02:27:48.301Z,2.12
2018-11-01T02:30:18.874Z,2.20
2018-11-01T02:32:48.341Z,2.20
2018-11-01T02:35:17.739Z,1.70
2018-11-01T02:37:46.141Z,2.10
2018-11-01T02:40:14.657Z,1.90
2018-11-01T02:42:44.414Z,1.83
2018-11-01T02:45:13.586Z,2.00
2018-11-01T02:47:42.485Z,2.03
2018-11-01T02:50:13.118Z,2.00
2018-11-01T02:52:41.662Z,1.80
2018-11-01T02:55:10.975Z,2.43
2018-11-01T02:57:40.008Z,2.27
2018-11-01T03:00:11.830Z,1.93
2018-11-01T03:02:41.436Z,1.70
2018-11-01T03:05:10.506Z,2.03
2018-11-01T03:07:40.569Z,2.00
2018-11-01T03:10:11.301Z,2.50
2018-11-01T03:12:40.184Z,2.40
2018-11-01T03:15:10.319Z,2.30
2018-11-01T03:17:39.277Z,2.50
2018-11-01T03:20:09.550Z,2.10
2018-11-01T03:22:38.748Z,2.13
2018-11-01T03:25:08.567Z,2.20
2018-11-01T03:27:38.710Z,2.10
2018-11-01T03:30:09.422Z,2.07
2018-11-01T03:32:38.736Z,2.30
2018-11-01T03:35:08.971Z,2.47
2018-11-01T03:37:37.842Z,2.30
2018-11-01T03:40:07.402Z,2.30
2018-11-01T03:42:35.693Z,2.13
2018-11-01T03:45:05.554Z,2.40
2018-11-01T03:47:34.322Z,2.02
2018-11-01T03:50:02.471Z,2.50
2018-11-01T03:52:30.894Z,2.30
2018-11-01T03:54:59.412Z,2.37
2018-11-01T03:57:28.744Z,2.63
2018-11-01T03:59:57.434Z,2.27
2018-11-01T04:02:25.741Z,2.42
2018-11-01T04:04:54.321Z,2.20
2018-11-01T04:07:23.330Z,2.10
2018-11-01T04:09:51.581Z,2.20
2018-11-01T04:12:19.932Z,2.30
2018-11-01T04:14:48.987Z,2.20
2018-11-01T04:17:17.212Z,2.30
2018-11-01T04:19:46.001Z,2.00
2018-11-01T04:22:14.271Z,2.40
2018-11-01T04:24:42.953Z,2.30
2018-11-01T04:27:11.166Z,2.50
2018-11-01T04:29:39.447Z,2.30
2018-11-01T04:32:08.013Z,2.33
2018-11-01T04:34:36.556Z,2.40
2018-11-01T04:37:04.954Z,2.70
2018-11-01T04:39:33.499Z,2.25
2018-11-01T04:42:01.831Z,2.33
2018-11-01T04:44:30.339Z,2.30
2018-11-01T04:46:59.776Z,2.67
2018-11-01T04:49:28.819Z,2.70
2018-11-01T04:51:57.233Z,2.80
2018-11-01T04:54:25.985Z,2.60
2018-11-01T04:56:54.149Z,2.37
2018-11-01T04:59:22.597Z,2.83
2018-11-01T05:01:52.540Z,2.83
2018-11-01T05:04:20.878Z,2.62
2018-11-01T05:06:49.299Z,3.10
2018-11-01T05:09:17.388Z,3.10
2018-11-01T05:11:45.941Z,2.60
2018-11-01T05:14:14.622Z,2.53
2018-11-01T05:16:43.093Z,2.60
2018-11-01T05:19:11.306Z,2.40
2018-11-01T05:21:40.261Z,2.90
2018-11-01T05:24:08.969Z,2.80
2018-11-01T05:26:37.913Z,3.00
2018-11-01T05:29:07.402Z,2.80
2018-11-01T05:31:35.937Z,2.93
2018-11-01T05:34:05.248Z,3.03
2018-11-01T05:36:33.959Z,2.67
2018-11-01T05:39:02.121Z,2.47
2018-11-01T05:41:31.974Z,2.87
2018-11-01T05:44:00.534Z,2.50
2018-11-01T05:46:28.990Z,2.65
2018-11-01T05:48:57.858Z,2.60
2018-11-01T05:51:26.603Z,2.80
2018-11-01T05:53:55.058Z,2.43
2018-11-01T05:56:23.197Z,2.83
2018-11-01T05:58:51.582Z,2.93
2018-11-01T06:01:25.734Z,2.40
2018-11-01T06:03:54.529Z,2.83
2018-11-01T06:06:22.830Z,2.80
2018-11-01T06:08:51.373Z,2.83
2018-11-01T06:11:19.690Z,2.60
2018-11-01T06:13:48.099Z,2.80
2018-11-01T06:16:17.251Z,2.97
2018-11-01T06:18:45.365Z,2.70
2018-11-01T06:21:15.609Z,2.90
2018-11-01T06:23:43.761Z,2.90
2018-11-01T06:26:13.605Z,3.00
2018-11-01T06:28:41.971Z,2.70
2018-11-01T06:31:10.758Z,2.80
2018-11-01T06:33:39.857Z,3.00
2018-11-01T06:36:11.814Z,2.77
2018-11-01T06:38:42.069Z,2.83
2018-11-01T06:41:11.623Z,2.30
2018-11-01T06:43:40.445Z,2.73
2018-11-01T06:46:08.966Z,2.90
2018-11-01T06:48:37.127Z,2.50
2018-11-01T06:51:06.866Z,2.87
2018-11-01T06:53:35.666Z,2.87
2018-11-01T06:56:03.758Z,2.83
2018-11-01T06:58:32.073Z,2.93
2018-11-01T07:01:01.587Z,3.37
2018-11-01T07:03:29.682Z,3.13
2018-11-01T07:05:58.485Z,2.70
2018-11-01T07:08:27.656Z,2.70
2018-11-01T07:10:55.789Z,3.27
2018-11-01T07:13:25.725Z,3.02
2018-11-01T07:15:54.160Z,3.37
2018-11-01T07:18:22.323Z,3.40
2018-11-01T07:20:50.753Z,3.37
2018-11-01T07:23:18.901Z,3.63
2018-11-01T07:25:47.950Z,2.90
2018-11-01T07:28:16.456Z,3.08
2018-11-01T07:30:44.867Z,3.43
2018-11-01T07:33:13.045Z,3.43
2018-11-01T07:35:42.261Z,2.97
2018-11-01T07:38:11.246Z,3.40
2018-11-01T07:40:40.500Z,3.27
2018-11-01T07:43:09.723Z,3.80
2018-11-01T07:45:38.450Z,3.60
2018-11-01T07:48:06.977Z,3.50
2018-11-01T07:50:35.150Z,3.80
2018-11-01T07:53:03.515Z,3.43
2018-11-01T07:55:32.933Z,3.67
2018-11-01T07:58:01.477Z,3.70
2018-11-01T08:00:29.597Z,3.62
2018-11-01T08:02:58.701Z,3.62
2018-11-01T08:05:27.407Z,3.60
2018-11-01T08:07:55.577Z,3.53
2018-11-01T08:10:24.089Z,3.83
2018-11-01T08:12:52.327Z,3.70
2018-11-01T08:15:21.354Z,3.70
2018-11-01T08:17:50.425Z,4.20
2018-11-01T08:20:18.846Z,4.00
2018-11-01T08:22:47.953Z,3.87
2018-11-01T08:25:16.917Z,4.10
2018-11-01T08:27:45.148Z,4.60
2018-11-01T08:30:14.845Z,3.93
2018-11-01T08:32:43.081Z,4.53
2018-11-01T08:35:11.919Z,4.40
2018-11-01T08:37:42.579Z,4.67
2018-11-01T08:40:11.130Z,4.37
2018-11-01T08:42:40.103Z,5.13
2018-11-01T08:45:10.178Z,4.73
2018-11-01T08:47:39.982Z,5.27
2018-11-01T08:50:09.645Z,4.50
2018-11-01T08:52:38.365Z,4.67
2018-11-01T08:55:07.735Z,4.53
2018-11-01T08:57:36.665Z,4.60
2018-11-01T09:00:05.993Z,4.70
2018-11-01T09:02:34.869Z,4.58
2018-11-01T09:05:03.201Z,4.90
2018-11-01T09:07:32.889Z,4.67
2018-11-01T09:10:01.703Z,4.40
2018-11-01T09:12:30.814Z,4.20
2018-11-01T09:14:58.937Z,4.20
2018-11-01T09:17:28.195Z,4.17
2018-11-01T09:19:56.858Z,4.17
2018-11-01T09:22:25.719Z,4.13
2018-11-01T09:24:53.994Z,4.13
2018-11-01T09:27:22.298Z,3.73
2018-11-01T09:29:50.786Z,4.27
2018-11-01T09:32:19.618Z,4.73
2018-11-01T09:34:48.501Z,3.77
2018-11-01T09:38:20.265Z,4.00
2018-11-01T09:40:48.837Z,4.37
2018-11-01T09:43:16.919Z,4.30
2018-11-01T09:45:45.662Z,4.50
2018-11-01T09:48:14.849Z,3.90
2018-11-01T09:50:43.134Z,4.30
2018-11-01T09:53:12.785Z,4.07
2018-11-01T09:55:41.881Z,4.30
2018-11-01T09:58:10.428Z,3.97
2018-11-01T10:00:38.890Z,4.20
2018-11-01T10:03:07.594Z,4.33
2018-11-01T10:05:37.000Z,4.40
2018-11-01T10:08:06.089Z,4.87
2018-11-01T10:10:34.919Z,4.43
2018-11-01T10:13:03.096Z,4.57
2018-11-01T10:15:31.373Z,4.97
2018-11-01T10:18:02.281Z,4.50
2018-11-01T10:20:30.855Z,5.30
2018-11-01T10:22:59.110Z,4.67
2018-11-01T10:25:27.923Z,5.40
2018-11-01T10:27:56.723Z,5.27
2018-11-01T10:30:24.881Z,5.45
2018-11-01T10:32:53.624Z,5.20
2018-11-01T10:35:21.678Z,5.43
2018-11-01T10:37:49.938Z,5.33
2018-11-01T10:40:20.194Z,5.40
2018-11-01T10:42:48.769Z,5.33
2018-11-01T10:45:18.174Z,4.93
2018-11-01T10:47:47.233Z,5.53
2018-11-01T10:50:18.711Z,5.37
2018-11-01T10:52:47.667Z,4.90
2018-11-01T10:55:16.721Z,5.00
2018-11-01T10:57:45.643Z,5.30
2018-11-01T11:00:19.770Z,5.37
2018-11-01T11:02:49.237Z,5.50
2018-11-01T11:05:19.209Z,5.10
2018-11-01T11:07:48.006Z,4.97
2018-11-01T11:10:16.592Z,4.87
2018-11-01T11:12:45.609Z,5.27
2018-11-01T11:15:14.693Z,5.00
2018-11-01T11:17:43.033Z,5.37
2018-11-01T11:20:11.830Z,5.57
2018-11-01T11:22:40.279Z,5.50
2018-11-01T11:25:10.057Z,6.27
2018-11-01T11:27:40.253Z,5.00
2018-11-01T11:30:09.649Z,5.43
2018-11-01T11:32:38.342Z,5.40
2018-11-01T11:35:07.132Z,5.63
2018-11-01T11:37:36.613Z,5.13
2018-11-01T11:40:06.021Z,5.00
2018-11-01T11:42:34.850Z,5.62
2018-11-01T11:45:02.957Z,5.63
2018-11-01T11:47:31.167Z,5.65
2018-11-01T11:50:00.686Z,5.27
2018-11-01T11:52:28.838Z,5.30
2018-11-01T11:54:57.544Z,5.30
2018-11-01T11:57:26.637Z,5.83
2018-11-01T11:59:55.301Z,4.90
2018-11-01T12:02:23.617Z,5.62
2018-11-01T12:04:52.291Z,5.10
2018-11-01T12:07:20.595Z,5.07
2018-11-01T12:09:49.442Z,5.13
2018-11-01T12:12:18.734Z,5.60
2018-11-01T12:14:47.558Z,5.27
2018-11-01T12:17:16.701Z,5.60
2018-11-01T12:19:45.410Z,5.30
2018-11-01T12:22:13.848Z,5.00
2018-11-01T12:24:42.421Z,5.07
2018-11-01T12:27:10.569Z,5.80
2018-11-01T12:29:38.666Z,5.87
2018-11-01T12:32:06.974Z,5.90
2018-11-01T12:34:35.067Z,6.00
2018-11-01T12:37:03.202Z,5.60
2018-11-01T12:39:31.566Z,5.92
2018-11-01T12:41:59.635Z,5.80
2018-11-01T12:44:27.815Z,5.20
2018-11-01T12:46:57.026Z,5.77
2018-11-01T12:49:25.676Z,5.70
2018-11-01T12:51:54.624Z,5.90
2018-11-01T12:54:22.914Z,6.23
2018-11-01T12:56:52.673Z,6.10
2018-11-01T12:59:21.312Z,5.57
2018-11-01T13:01:51.329Z,5.57
2018-11-01T13:04:19.795Z,4.80
2018-11-01T13:06:47.997Z,5.60
2018-11-01T13:09:16.510Z,5.63
2018-11-01T13:11:52.553Z,5.40
2018-11-01T13:14:20.978Z,5.08
2018-11-01T13:16:49.937Z,5.37
2018-11-01T13:19:18.454Z,5.97
2018-11-01T13:21:47.259Z,5.60
2018-11-01T13:24:16.188Z,5.43
2018-11-01T13:26:44.926Z,5.83
2018-11-01T13:29:13.824Z,5.53
2018-11-01T13:31:41.959Z,5.77
2018-11-01T13:34:11.022Z,5.93
2018-11-01T13:36:40.389Z,5.77
2018-11-01T13:39:09.941Z,5.50
2018-11-01T13:41:38.505Z,6.80
2018-11-01T13:44:06.919Z,5.87
2018-11-01T13:46:35.126Z,5.90
2018-11-01T13:49:04.243Z,6.20
2018-11-01T13:51:33.374Z,5.87
2018-11-01T13:54:02.184Z,5.80
2018-11-01T13:56:30.512Z,6.08
2018-11-01T13:58:59.365Z,6.57
2018-11-01T14:03:36.078Z,6.28
2018-11-01T14:06:04.296Z,6.00
2018-11-01T14:08:32.444Z,6.30
2018-11-01T14:11:01.469Z,5.77
2018-11-01T14:13:29.727Z,6.10
2018-11-01T14:15:58.218Z,6.50
2018-11-01T14:18:26.302Z,6.60
2018-11-01T14:20:54.978Z,7.17
2018-11-01T14:23:23.054Z,6.45
2018-11-01T14:25:52.237Z,6.80
2018-11-01T14:28:20.405Z,6.53
2018-11-01T14:30:48.540Z,6.70
2018-11-01T14:33:16.672Z,6.67
2018-11-01T14:35:47.195Z,6.10
2018-11-01T14:38:15.890Z,6.90
2018-11-01T14:40:44.753Z,6.33
2018-11-01T14:43:14.423Z,7.22
2018-11-01T14:45:43.235Z,7.20
2018-11-01T14:48:13.626Z,7.03
2018-11-01T14:50:42.262Z,7.53
2018-11-01T14:53:11.049Z,7.07
2018-11-01T14:55:41.237Z,8.03
2018-11-01T14:58:09.474Z,7.23
2018-11-01T15:00:36.498Z,7.67
2018-11-01T15:03:05.961Z,6.80
2018-11-01T15:05:34.301Z,6.90
2018-11-01T15:08:03.178Z,7.00
2018-11-01T15:10:31.883Z,6.93
2018-11-01T15:13:00.369Z,7.13
2018-11-01T15:15:28.423Z,7.03
2018-11-01T15:17:56.930Z,6.77
2018-11-01T15:20:26.098Z,7.33
2018-11-01T15:22:54.285Z,7.73
2018-11-01T15:25:22.595Z,7.80
2018-11-01T15:27:51.147Z,6.33
2018-11-01T15:30:19.851Z,7.07
2018-11-01T15:32:48.254Z,7.60
2018-11-01T15:35:16.913Z,7.53
2018-11-01T15:37:45.061Z,6.97
2018-11-01T15:40:14.051Z,6.83
2018-11-01T15:42:42.845Z,7.27
2018-11-01T15:45:11.877Z,7.27
2018-11-01T15:47:41.083Z,7.30
2018-11-01T15:50:11.263Z,7.13
2018-11-01T15:52:39.453Z,6.80
2018-11-01T15:55:08.464Z,7.63
2018-11-01T15:57:37.218Z,7.83
2018-11-01T16:00:06.932Z,8.10
2018-11-01T16:02:36.840Z,8.28
2018-11-01T16:05:05.553Z,7.37
2018-11-01T16:07:33.857Z,7.53
2018-11-01T16:10:02.652Z,7.70
2018-11-01T16:12:30.874Z,7.33
2018-11-01T16:14:59.698Z,8.20
2018-11-01T16:17:27.811Z,8.65
2018-11-01T16:19:56.180Z,7.70
2018-11-01T16:22:24.810Z,8.23
2018-11-01T16:24:52.978Z,7.60
2018-11-01T16:27:21.214Z,7.80
2018-11-01T16:29:50.283Z,7.50
2018-11-01T16:32:18.632Z,8.40
2018-11-01T16:34:47.014Z,8.67
2018-11-01T16:37:15.511Z,8.20
2018-11-01T16:39:44.297Z,8.47
2018-11-01T16:42:12.863Z,8.20
2018-11-01T16:44:40.894Z,8.07
2018-11-01T16:47:09.805Z,8.98
2018-11-01T16:49:38.021Z,8.50
2018-11-01T16:52:06.134Z,9.00
2018-11-01T16:54:34.304Z,7.37
2018-11-01T16:57:02.497Z,7.77
2018-11-01T16:59:31.713Z,8.08
2018-11-01T17:02:00.233Z,7.93
2018-11-01T17:04:28.866Z,7.63
2018-11-01T17:06:57.389Z,7.93
2018-11-01T17:09:26.057Z,7.55
2018-11-01T17:11:54.197Z,8.67
2018-11-01T17:14:23.137Z,8.25
2018-11-01T17:16:51.902Z,8.47
2018-11-01T17:19:19.997Z,8.40
2018-11-01T17:21:48.405Z,8.03
2018-11-01T17:24:16.773Z,8.60
2018-11-01T17:26:46.077Z,8.33
2018-11-01T17:29:14.336Z,8.77
2018-11-01T17:31:43.757Z,8.40
2018-11-01T17:34:12.922Z,9.03
2018-11-01T17:36:40.945Z,7.83
2018-11-01T17:39:09.812Z,8.53
2018-11-01T17:41:38.873Z,9.50
2018-11-01T17:44:07.887Z,9.00
2018-11-01T17:46:35.993Z,9.33
2018-11-01T17:49:04.066Z,9.03
2018-11-01T17:51:32.826Z,9.07
2018-11-01T17:54:02.081Z,8.70
2018-11-01T17:56:30.654Z,9.47
2018-11-01T17:58:59.386Z,9.30
2018-11-01T18:01:27.508Z,9.80
2018-11-01T18:03:56.467Z,9.50
2018-11-01T18:06:24.884Z,9.48
2018-11-01T18:08:53.039Z,9.40
2018-11-01T18:11:21.335Z,10.05
2018-11-01T18:13:51.126Z,10.10
2018-11-01T18:16:19.485Z,10.50
2018-11-01T18:18:47.945Z,9.87
2018-11-01T18:21:16.086Z,10.43
2018-11-01T18:23:45.511Z,9.60
2018-11-01T18:26:14.242Z,10.73
2018-11-01T18:28:43.352Z,10.40
2018-11-01T18:31:11.757Z,10.43
2018-11-01T18:33:40.023Z,11.93
2018-11-01T18:36:08.094Z,11.43
2018-11-01T18:38:36.693Z,11.27
2018-11-01T18:41:06.817Z,10.80
2018-11-01T18:43:35.691Z,10.90
2018-11-01T18:48:24.861Z,10.33
2018-11-01T18:50:53.397Z,10.43
2018-11-01T18:53:21.550Z,10.67
2018-11-01T18:55:50.733Z,10.97
2018-11-01T18:58:18.845Z,10.95
2018-11-01T19:00:47.661Z,11.40
2018-11-01T19:03:20.983Z,11.20
2018-11-01T19:05:50.257Z,10.47
2018-11-01T19:08:18.486Z,11.00
2018-11-01T19:10:47.213Z,10.80
2018-11-01T19:13:15.861Z,11.63
2018-11-01T19:15:44.364Z,10.60
2018-11-01T19:18:13.663Z,10.40
2018-11-01T19:20:41.776Z,11.27
2018-11-01T19:23:09.982Z,11.10
2018-11-01T19:25:38.394Z,11.20
2018-11-01T19:28:06.788Z,10.33
2018-11-01T19:30:35.454Z,11.63
2018-11-01T19:33:04.637Z,11.27
2018-11-01T19:35:32.758Z,11.83
2018-11-01T19:38:01.265Z,10.40
2018-11-01T19:40:30.735Z,10.78
2018-11-01T19:42:58.928Z,10.60
2018-11-01T19:45:27.760Z,11.03
2018-11-01T19:47:56.789Z,10.90
2018-11-01T19:50:24.893Z,11.10
2018-11-01T19:52:53.032Z,10.10
2018-11-01T19:55:21.173Z,10.18
2018-11-01T19:57:49.343Z,10.33
2018-11-01T20:00:17.951Z,10.57
2018-11-01T20:02:47.418Z,9.73
2018-11-01T20:05:15.854Z,10.48
2018-11-01T20:07:44.225Z,10.10
2018-11-01T20:10:13.493Z,9.97
2018-11-01T20:12:41.813Z,9.70
2018-11-01T20:15:10.330Z,10.23
2018-11-01T20:17:39.295Z,11.70
2018-11-01T20:20:09.518Z,9.97
2018-11-01T20:22:39.358Z,8.83
2018-11-01T20:25:07.809Z,9.60
2018-11-01T20:27:36.309Z,9.90
2018-11-01T20:30:07.437Z,9.30
2018-11-01T20:32:35.818Z,9.30
2018-11-01T20:35:04.474Z,9.47
2018-11-01T20:37:33.782Z,9.20
2018-11-01T20:40:02.050Z,9.30
2018-11-01T20:42:30.293Z,9.40
2018-11-01T20:44:59.325Z,9.37
2018-11-01T20:47:27.416Z,9.17
2018-11-01T20:49:55.518Z,9.67
2018-11-01T20:52:23.694Z,8.97
2018-11-01T20:54:53.953Z,8.13
2018-11-01T20:57:22.203Z,9.00
2018-11-01T20:59:50.985Z,8.40
2018-11-01T21:02:19.245Z,8.53
2018-11-01T21:04:48.257Z,8.57
2018-11-01T21:07:16.564Z,8.87
2018-11-01T21:09:45.250Z,9.00
2018-11-01T21:12:14.399Z,8.77
2018-11-01T21:14:42.701Z,9.50
2018-11-01T21:17:11.255Z,9.80
2018-11-01T21:19:40.382Z,8.80
2018-11-01T21:22:12.352Z,8.80
2018-11-01T21:24:40.510Z,9.63
2018-11-01T21:27:08.752Z,8.70
2018-11-01T21:29:37.658Z,9.63
2018-11-01T21:32:07.782Z,9.13
2018-11-01T21:34:36.465Z,10.30
2018-11-01T21:37:05.325Z,10.17
2018-11-01T21:39:34.602Z,10.03
2018-11-01T21:42:03.288Z,9.83
2018-11-01T21:44:31.430Z,9.08
2018-11-01T21:47:00.030Z,9.43
2018-11-01T21:49:28.326Z,8.83
2018-11-01T21:51:56.889Z,8.93
2018-11-01T21:54:26.265Z,9.53
2018-11-01T21:56:54.501Z,9.60
2018-11-01T21:59:22.662Z,9.17
2018-11-01T22:01:51.762Z,9.40
2018-11-01T22:04:20.070Z,9.40
2018-11-01T22:06:49.397Z,9.83
2018-11-01T22:09:18.257Z,10.30
2018-11-01T22:11:46.814Z,10.40
2018-11-01T22:14:14.958Z,10.07
2018-11-01T22:16:43.924Z,9.73
2018-11-01T22:19:15.099Z,10.13
2018-11-01T22:21:44.101Z,9.67
2018-11-01T22:24:12.247Z,10.70
2018-11-01T22:26:40.923Z,9.80
2018-11-01T22:29:09.199Z,9.33
2018-11-01T22:31:37.975Z,9.43
2018-11-01T22:34:06.573Z,9.97
2018-11-01T22:36:35.745Z,10.25
2018-11-01T22:39:07.939Z,10.53
2018-11-01T22:41:37.340Z,10.27
2018-11-01T22:44:05.565Z,10.17
2018-11-01T22:46:33.981Z,9.67
2018-11-01T22:49:03.611Z,9.70
2018-11-01T22:51:31.968Z,9.80
2018-11-01T22:54:00.862Z,10.57
2018-11-01T22:56:29.159Z,10.58
2018-11-01T22:58:57.417Z,10.70
2018-11-01T23:01:26.577Z,9.80
2018-11-01T23:03:55.417Z,11.37
2018-11-01T23:06:23.894Z,10.87
2018-11-01T23:08:52.078Z,10.53
2018-11-01T23:11:20.245Z,11.07
2018-11-01T23:13:49.337Z,10.23
2018-11-01T23:16:17.521Z,10.90
2018-11-01T23:18:46.330Z,11.27
2018-11-01T23:21:15.025Z,11.07
2018-11-01T23:23:44.373Z,10.97
2018-11-01T23:26:12.679Z,10.90
2018-11-01T23:28:41.245Z,10.77
2018-11-01T23:31:10.009Z,10.40
2018-11-01T23:33:38.330Z,11.13
2018-11-01T23:36:06.282Z,11.80
2018-11-01T23:38:39.726Z,11.50
2018-11-01T23:41:13.389Z,12.07
2018-11-01T23:43:47.465Z,11.27
2018-11-01T23:46:21.507Z,11.33
2018-11-01T23:48:59.417Z,10.97
2018-11-01T23:51:27.761Z,12.05
2018-11-01T23:53:56.706Z,12.50
2018-11-01T23:56:24.879Z,12.40
2018-11-01T23:58:53.345Z,14.45
